DLH452 EDDM-KLAX
Flight info
| Callsign | DLH452 |
|---|---|
| Flight time | N/A |
| Altitude | 34000 |
| Route | INPUD2N INPUD Y102 UPALA Z109 BAMAS L604 GASKA DCT MASEK DCT PREXA DCT AMGOD DCT MIMVA L602 NALAX L46 ESHIN N110 USEKA/N0483F380 N110 ERKIT DCT AMLAD DCT SUNOT/M085F380 DCT 58N020W 59N030W 5930N04000W 60N050W DCT PIDSO DCT MIBNO/N0477F380 DCT TUNNI DCT KELMU/N0491F400 DCT 5730N09000W DCT KENRU Q827 ITREK/N0466F380 DCT HLN DCT BAM DCT MVA/N0448F360 DCT FRA/N0446F350 DCT REBRG IRNMN2 |
| Aircraft | A388/J-SADE2E3GHIJ3J4J5LM1OP2RWXYZ/LB1D1 |
Departure
| Time | 2026-05-05 10:25 |
|---|---|
| Airport | Munich Airport (EDDM) |
Arrival
| Time | N/A |
|---|---|
| Airport | Los Angeles International Airport (KLAX) |
| Time | Latitude | Longitude | Altitude | Speed | Heading |
|---|---|---|---|---|---|
| 2026-05-05 08:47 | 48.35468 | 11.79728 | 1490 ft | 0 kts | 83° |
| 2026-05-05 10:05 | 48.35468 | 11.79726 | 1490 ft | 2 kts | 83° |
| 2026-05-05 10:06 | 48.35465 | 11.79689 | 1490 ft | 4 kts | 83° |
| 2026-05-05 10:06 | 48.35463 | 11.79654 | 1480 ft | 2 kts | 83° |
| 2026-05-05 10:06 | 48.35457 | 11.79621 | 1475 ft | 4 kts | 61° |
| 2026-05-05 10:06 | 48.35444 | 11.79599 | 1477 ft | 4 kts | 25° |
| 2026-05-05 10:07 | 48.35425 | 11.79595 | 1481 ft | 3 kts | 353° |
| 2026-05-05 10:07 | 48.35399 | 11.79600 | 1478 ft | 4 kts | 353° |
| 2026-05-05 10:07 | 48.35389 | 11.79601 | 1488 ft | 3 kts | 353° |
| 2026-05-05 10:12 | 48.35399 | 11.79599 | 1484 ft | 3 kts | 353° |
| 2026-05-05 10:12 | 48.35463 | 11.79589 | 1487 ft | 15 kts | 353° |
| 2026-05-05 10:13 | 48.35599 | 11.79565 | 1479 ft | 23 kts | 353° |
| 2026-05-05 10:13 | 48.35754 | 11.79538 | 1486 ft | 19 kts | 353° |
| 2026-05-05 10:13 | 48.35856 | 11.79520 | 1483 ft | 8 kts | 352° |
| 2026-05-05 10:13 | 48.35902 | 11.79464 | 1490 ft | 10 kts | 282° |
| 2026-05-05 10:14 | 48.35914 | 11.79368 | 1485 ft | 9 kts | 313° |
| 2026-05-05 10:14 | 48.35985 | 11.79335 | 1478 ft | 14 kts | 354° |
| 2026-05-05 10:14 | 48.36102 | 11.79315 | 1475 ft | 20 kts | 353° |
| 2026-05-05 10:14 | 48.36187 | 11.79323 | 1477 ft | 10 kts | 40° |
| 2026-05-05 10:15 | 48.36211 | 11.79438 | 1480 ft | 15 kts | 84° |
| 2026-05-05 10:15 | 48.36212 | 11.79464 | 1490 ft | 16 kts | 84° |
| 2026-05-05 10:15 | 48.36223 | 11.79613 | 1476 ft | 20 kts | 83° |
| 2026-05-05 10:15 | 48.36242 | 11.79855 | 1482 ft | 26 kts | 83° |
| 2026-05-05 10:16 | 48.36265 | 11.80150 | 1475 ft | 31 kts | 83° |
| 2026-05-05 10:16 | 48.36293 | 11.80493 | 1476 ft | 35 kts | 83° |
| 2026-05-05 10:16 | 48.36325 | 11.80879 | 1480 ft | 34 kts | 88° |
| 2026-05-05 10:16 | 48.36337 | 11.81092 | 1476 ft | 22 kts | 83° |
| 2026-05-05 10:17 | 48.36358 | 11.81348 | 1475 ft | 23 kts | 83° |
| 2026-05-05 10:17 | 48.36374 | 11.81552 | 1488 ft | 21 kts | 83° |
| 2026-05-05 10:17 | 48.36387 | 11.81710 | 1478 ft | 15 kts | 83° |
| 2026-05-05 10:17 | 48.36398 | 11.81880 | 1479 ft | 15 kts | 93° |
| 2026-05-05 10:18 | 48.36391 | 11.82000 | 1478 ft | 12 kts | 86° |
| 2026-05-05 10:18 | 48.36393 | 11.82034 | 1490 ft | 2 kts | 83° |
| 2026-05-05 10:18 | 48.36394 | 11.82046 | 1476 ft | 4 kts | 83° |
| 2026-05-05 10:18 | 48.36400 | 11.82125 | 1481 ft | 11 kts | 83° |
| 2026-05-05 10:19 | 48.36411 | 11.82244 | 1480 ft | 9 kts | 73° |
| 2026-05-05 10:19 | 48.36456 | 11.82298 | 1477 ft | 7 kts | 1° |
| 2026-05-05 10:19 | 48.36469 | 11.82297 | 1490 ft | 0 kts | 354° |
| 2026-05-05 10:23 | 48.36471 | 11.82297 | 1490 ft | 1 kts | 354° |
| 2026-05-05 10:23 | 48.36494 | 11.82294 | 1490 ft | 5 kts | 354° |
| 2026-05-05 10:23 | 48.36541 | 11.82278 | 1478 ft | 9 kts | 336° |
| 2026-05-05 10:23 | 48.36595 | 11.82209 | 1487 ft | 12 kts | 310° |
| 2026-05-05 10:24 | 48.36643 | 11.82116 | 1475 ft | 7 kts | 307° |
| 2026-05-05 10:24 | 48.36674 | 11.82047 | 1478 ft | 9 kts | 294° |
| 2026-05-05 10:24 | 48.36677 | 11.81954 | 1478 ft | 10 kts | 263° |
| 2026-05-05 10:24 | 48.36647 | 11.81569 | 1490 ft | 74 kts | 263° |
| 2026-05-05 10:25 | 48.36559 | 11.80441 | 1475 ft | 140 kts | 264° |
| 2026-05-05 10:25 | 48.36431 | 11.78764 | 1505 ft | 179 kts | 264° |
| 2026-05-05 10:25 | 48.36283 | 11.76888 | 1983 ft | 179 kts | 265° |
| 2026-05-05 10:25 | 48.36188 | 11.74993 | 2472 ft | 185 kts | 266° |
| 2026-05-05 10:26 | 48.36073 | 11.73076 | 2788 ft | 197 kts | 264° |
| 2026-05-05 10:26 | 48.35893 | 11.70962 | 2943 ft | 210 kts | 263° |
| 2026-05-05 10:26 | 48.35794 | 11.68701 | 3036 ft | 223 kts | 279° |
| 2026-05-05 10:26 | 48.36424 | 11.66547 | 3167 ft | 236 kts | 313° |
| 2026-05-05 10:27 | 48.37796 | 11.65245 | 3835 ft | 236 kts | 346° |
| 2026-05-05 10:27 | 48.39427 | 11.64806 | 4474 ft | 246 kts | 351° |
| 2026-05-05 10:27 | 48.41193 | 11.64368 | 4831 ft | 267 kts | 349° |
| 2026-05-05 10:27 | 48.43057 | 11.63861 | 5374 ft | 275 kts | 349° |
| 2026-05-05 10:28 | 48.44944 | 11.63317 | 6001 ft | 278 kts | 348° |
| 2026-05-05 10:28 | 48.46858 | 11.62750 | 6615 ft | 282 kts | 348° |
| 2026-05-05 10:28 | 48.48785 | 11.62178 | 6952 ft | 277 kts | 348° |
| 2026-05-05 10:28 | 48.50624 | 11.61639 | 7014 ft | 268 kts | 349° |
| 2026-05-05 10:29 | 48.52529 | 11.61087 | 7491 ft | 276 kts | 348° |
| 2026-05-05 10:29 | 48.54318 | 11.60562 | 8331 ft | 254 kts | 349° |
| 2026-05-05 10:29 | 48.55908 | 11.60095 | 9145 ft | 245 kts | 349° |